Time;durP1;ratioP1;P1;durP2;ratioP2;P2;SDS_P1;SDS_P2;PMS_P1;PMS_P2;Temp;Humidity;BMP_temperature;BMP_pressure;BME280_temperature;BME280_humidity;BME280_pressure;Samples;Min_cycle;Max_cycle;Signal;HPM_P1;HPM_P2
2023/07/15 00:00:42;;;;;;;1.27;1.02;;;18.90;99.90;;;;;;5074171;28;20409;-82
2023/07/15 00:03:09;;;;;;;5.10;1.42;;;18.90;99.90;;;;;;5056337;28;20044;-82
2023/07/15 00:05:35;;;;;;;1.88;1.10;;;18.90;99.90;;;;;;5040761;28;20127;-83
2023/07/15 00:08:05;;;;;;;1.95;0.93;;;18.80;99.90;;;;;;5073982;28;20059;-82
2023/07/15 00:10:34;;;;;;;2.03;1.02;;;18.90;99.90;;;;;;5074074;28;20447;-83
2023/07/15 00:13:00;;;;;;;1.73;1.02;;;18.90;99.90;;;;;;5074638;28;20119;-83
2023/07/15 00:15:26;;;;;;;2.17;1.00;;;18.80;99.90;;;;;;5093262;28;20094;-83
2023/07/15 00:17:52;;;;;;;1.85;0.90;;;18.80;99.90;;;;;;5059197;28;20040;-83
2023/07/15 00:20:19;;;;;;;2.78;0.90;;;18.80;99.90;;;;;;5073730;28;20040;-82
2023/07/15 00:22:46;;;;;;;2.75;1.10;;;18.80;99.90;;;;;;5055999;28;20562;-82
2023/07/15 00:25:16;;;;;;;1.48;0.90;;;18.80;99.90;;;;;;5057007;28;20402;-82
2023/07/15 00:27:43;;;;;;;1.65;0.80;;;18.80;99.90;;;;;;5055196;28;20484;-81
2023/07/15 00:30:16;;;;;;;1.70;0.90;;;18.70;99.90;;;;;;5055858;28;20052;-82
2023/07/15 00:32:46;;;;;;;1.48;0.80;;;18.70;99.90;;;;;;5065555;28;20048;-81
2023/07/15 00:35:31;;;;;;;2.17;0.77;;;18.70;99.90;;;;;;5099168;28;20051;-82
2023/07/15 00:37:58;;;;;;;1.48;0.70;;;18.70;99.90;;;;;;5108177;28;20186;-82
2023/07/15 00:40:24;;;;;;;1.30;0.60;;;18.70;99.90;;;;;;5084178;28;20062;-82
2023/07/15 00:42:53;;;;;;;1.40;0.80;;;18.70;99.90;;;;;;5107100;28;20040;-82
2023/07/15 00:45:18;;;;;;;1.63;0.85;;;18.70;99.90;;;;;;5098938;28;20052;-82
2023/07/15 00:48:06;;;;;;;2.65;0.80;;;18.70;99.90;;;;;;5081129;28;20048;-81
2023/07/15 00:50:32;;;;;;;1.10;0.68;;;18.70;99.90;;;;;;5106452;28;20122;-81
2023/07/15 00:52:58;;;;;;;1.50;1.00;;;18.70;99.90;;;;;;5102230;28;20395;-82
2023/07/15 00:55:24;;;;;;;2.25;1.05;;;18.70;99.90;;;;;;5119425;28;20043;-81
2023/07/15 00:57:50;;;;;;;1.55;0.88;;;18.70;99.90;;;;;;5121391;28;20115;-81
2023/07/15 01:00:18;;;;;;;3.60;0.80;;;18.70;99.90;;;;;;5102126;28;20067;-82
2023/07/15 01:02:44;;;;;;;2.13;1.00;;;18.70;99.90;;;;;;5112019;28;20122;-82
2023/07/15 01:05:10;;;;;;;2.20;1.00;;;18.70;99.90;;;;;;5118227;28;20373;-83
2023/07/15 01:07:36;;;;;;;1.45;0.90;;;18.70;99.90;;;;;;5096461;28;20044;-82
2023/07/15 01:10:02;;;;;;;1.23;0.70;;;18.60;99.90;;;;;;5075774;28;20043;-83
2023/07/15 01:12:28;;;;;;;2.22;0.90;;;18.60;99.90;;;;;;5093785;28;20119;-82
2023/07/15 01:14:54;;;;;;;1.30;0.70;;;18.60;99.90;;;;;;5094528;28;20051;-83
2023/07/15 01:17:20;;;;;;;1.10;0.80;;;18.60;99.90;;;;;;5098200;28;20048;-82
2023/07/15 01:19:46;;;;;;;3.83;0.73;;;18.60;99.90;;;;;;5095219;28;20451;-83
2023/07/15 01:22:12;;;;;;;1.15;0.52;;;18.70;99.90;;;;;;5093732;28;20047;-83
2023/07/15 01:24:39;;;;;;;1.77;0.80;;;18.70;99.90;;;;;;5093649;28;20048;-82
2023/07/15 01:27:08;;;;;;;1.65;0.70;;;18.70;99.90;;;;;;5093352;28;20088;-82
2023/07/15 01:29:33;;;;;;;1.73;0.80;;;18.70;99.90;;;;;;5090218;28;20062;-83
2023/07/15 01:31:59;;;;;;;2.47;0.90;;;18.70;99.90;;;;;;5108321;28;20036;-83
2023/07/15 01:34:25;;;;;;;1.27;0.80;;;18.70;99.90;;;;;;5095131;28;20265;-84
2023/07/15 01:36:51;;;;;;;1.25;0.80;;;18.60;99.90;;;;;;5100186;28;20153;-84
2023/07/15 01:39:17;;;;;;;1.38;0.80;;;18.70;99.90;;;;;;5090928;28;20043;-83
2023/07/15 01:41:43;;;;;;;1.13;0.70;;;18.70;99.90;;;;;;5097494;28;20035;-83
2023/07/15 01:44:10;;;;;;;2.20;0.70;;;18.70;99.90;;;;;;5075148;28;20052;-84
2023/07/15 01:46:39;;;;;;;1.95;0.80;;;18.70;99.90;;;;;;5107905;28;20051;-84
2023/07/15 01:49:07;;;;;;;1.55;0.63;;;18.70;99.90;;;;;;5095512;28;20051;-84
2023/07/15 01:56:01;;;;;;;1.73;0.60;;;18.80;99.90;;;;;;5112133;28;20073;-84
2023/07/15 01:58:26;;;;;;;1.27;0.68;;;18.90;99.90;;;;;;5093681;28;20044;-82
2023/07/15 02:00:52;;;;;;;1.10;0.60;;;18.90;99.90;;;;;;5075449;28;20097;-84
2023/07/15 02:03:18;;;;;;;1.52;0.80;;;18.90;99.90;;;;;;5084276;28;20477;-83
2023/07/15 02:05:43;;;;;;;0.60;0.50;;;19.00;99.90;;;;;;5113961;28;20488;-83
2023/07/15 02:08:09;;;;;;;1.08;0.60;;;18.90;99.90;;;;;;5096014;28;20120;-83
2023/07/15 02:10:35;;;;;;;0.90;0.60;;;18.90;99.90;;;;;;5113467;28;20051;-83
2023/07/15 02:13:01;;;;;;;1.33;1.00;;;18.90;99.90;;;;;;5111421;28;20044;-83
2023/07/15 02:15:26;;;;;;;0.85;0.50;;;19.00;99.90;;;;;;5091274;28;20040;-82
2023/07/15 02:17:53;;;;;;;1.30;0.60;;;18.90;99.90;;;;;;5109342;28;20047;-83
2023/07/15 02:20:19;;;;;;;1.10;0.55;;;19.00;99.90;;;;;;5113595;28;20047;-84
2023/07/15 02:22:44;;;;;;;1.45;0.70;;;19.00;99.90;;;;;;5116536;28;20043;-82
2023/07/15 02:25:10;;;;;;;1.38;0.80;;;19.00;99.90;;;;;;5114977;28;20046;-83
2023/07/15 02:27:36;;;;;;;1.55;0.75;;;19.00;99.90;;;;;;5081218;28;20500;-84
2023/07/15 02:30:05;;;;;;;1.88;0.60;;;19.00;99.90;;;;;;5081435;28;20042;-82
2023/07/15 02:32:35;;;;;;;1.00;0.75;;;19.00;99.90;;;;;;5096970;28;20058;-83
2023/07/15 02:35:02;;;;;;;2.25;0.68;;;19.00;99.90;;;;;;5096201;28;20058;-83
2023/07/15 02:37:28;;;;;;;1.58;0.50;;;19.00;99.90;;;;;;5115962;28;20047;-83
2023/07/15 02:39:53;;;;;;;1.33;0.63;;;19.00;99.90;;;;;;5115911;28;20043;-84
2023/07/15 02:42:19;;;;;;;0.80;0.55;;;18.90;99.90;;;;;;5097349;28;20039;-83
2023/07/15 02:44:44;;;;;;;3.75;0.60;;;18.90;99.90;;;;;;5097251;28;20408;-84
2023/07/15 02:47:10;;;;;;;1.90;0.80;;;18.90;99.90;;;;;;5095578;28;20135;-83
2023/07/15 02:49:36;;;;;;;0.93;0.60;;;18.80;99.90;;;;;;5115590;28;20048;-84
2023/07/15 02:52:02;;;;;;;0.73;0.50;;;18.80;99.90;;;;;;5115529;28;20499;-84
2023/07/15 02:54:28;;;;;;;0.80;0.57;;;18.70;99.90;;;;;;5115920;28;20039;-82
2023/07/15 02:56:55;;;;;;;2.05;0.60;;;18.70;99.90;;;;;;5113248;28;20077;-84
2023/07/15 02:59:22;;;;;;;1.23;0.63;;;18.70;99.90;;;;;;5115843;28;20048;-84
2023/07/15 03:01:48;;;;;;;0.75;0.40;;;18.70;99.90;;;;;;5115100;28;20043;-83
2023/07/15 03:04:14;;;;;;;1.48;0.63;;;18.70;99.90;;;;;;5107275;28;20514;-83
2023/07/15 03:06:41;;;;;;;1.25;0.70;;;18.60;99.90;;;;;;5110243;28;20036;-83
2023/07/15 03:09:07;;;;;;;3.08;0.73;;;18.60;99.90;;;;;;5114632;28;20439;-85
2023/07/15 03:11:33;;;;;;;1.20;0.70;;;18.60;99.90;;;;;;5114411;28;20039;-83
2023/07/15 03:13:58;;;;;;;1.35;0.85;;;18.50;99.90;;;;;;5078409;28;20048;-83
2023/07/15 03:16:24;;;;;;;1.00;0.70;;;18.40;99.90;;;;;;5114577;28;20492;-84
2023/07/15 03:18:49;;;;;;;1.50;0.80;;;18.50;99.90;;;;;;5098003;28;20036;-83
2023/07/15 03:21:15;;;;;;;1.08;0.70;;;18.40;99.90;;;;;;5076611;28;20044;-83
2023/07/15 03:23:41;;;;;;;1.02;0.80;;;18.40;99.90;;;;;;5094851;28;20412;-85
2023/07/15 03:26:07;;;;;;;2.45;0.80;;;18.40;99.90;;;;;;5076686;28;20059;-83
2023/07/15 03:28:33;;;;;;;1.35;0.68;;;18.40;99.90;;;;;;5093807;28;20048;-82
2023/07/15 03:30:58;;;;;;;0.88;0.52;;;18.50;99.90;;;;;;5095460;28;20044;-81
2023/07/15 03:33:24;;;;;;;1.33;0.70;;;18.50;99.90;;;;;;5068247;28;20098;-83
2023/07/15 03:35:50;;;;;;;0.90;0.60;;;18.60;99.90;;;;;;5076215;28;20162;-82
2023/07/15 03:38:15;;;;;;;1.30;0.68;;;18.70;99.90;;;;;;5093955;28;20048;-82
2023/07/15 03:40:41;;;;;;;0.93;0.70;;;18.60;99.90;;;;;;5076234;28;20169;-83
2023/07/15 03:43:07;;;;;;;1.10;0.70;;;18.70;99.90;;;;;;5078239;28;20059;-82
2023/07/15 03:45:32;;;;;;;0.70;0.52;;;18.70;99.90;;;;;;5114877;28;20043;-82
2023/07/15 03:47:58;;;;;;;2.92;0.85;;;18.70;99.90;;;;;;5096501;28;20044;-82
2023/07/15 03:50:24;;;;;;;5.38;0.98;;;18.70;99.90;;;;;;5101342;28;20111;-82
2023/07/15 03:52:50;;;;;;;2.78;0.80;;;18.70;99.90;;;;;;5094214;28;20040;-82
2023/07/15 03:55:16;;;;;;;1.08;0.68;;;18.80;99.90;;;;;;5114469;28;20116;-82
2023/07/15 03:57:42;;;;;;;1.00;0.77;;;18.80;99.90;;;;;;5114914;28;20397;-82
2023/07/15 04:00:17;;;;;;;1.85;0.90;;;18.90;99.90;;;;;;5110997;28;20051;-82
2023/07/15 04:02:49;;;;;;;0.70;0.55;;;18.90;99.90;;;;;;5099720;28;20127;-83
2023/07/15 04:05:15;;;;;;;2.30;0.80;;;19.00;99.90;;;;;;5105006;28;20114;-83
2023/07/15 04:07:40;;;;;;;3.75;0.70;;;19.10;99.90;;;;;;5113148;28;20036;-83
2023/07/15 04:10:07;;;;;;;0.95;0.63;;;19.10;99.90;;;;;;5114008;28;20119;-82
2023/07/15 04:12:32;;;;;;;2.05;0.70;;;19.20;99.90;;;;;;5093985;28;20135;-83
2023/07/15 04:14:58;;;;;;;1.40;0.98;;;19.20;99.90;;;;;;5111898;28;20539;-82
2023/07/15 04:17:24;;;;;;;6.20;0.70;;;19.20;99.90;;;;;;5095857;28;20492;-82
2023/07/15 04:19:49;;;;;;;3.10;0.80;;;19.20;99.90;;;;;;5114103;28;20403;-83
2023/07/15 04:22:15;;;;;;;1.08;0.50;;;19.20;99.90;;;;;;5083005;28;20036;-83
2023/07/15 04:24:41;;;;;;;2.72;1.00;;;19.30;99.90;;;;;;5075625;28;20535;-82
2023/07/15 04:27:06;;;;;;;0.70;0.50;;;19.30;99.90;;;;;;5075648;28;20507;-83
2023/07/15 04:29:32;;;;;;;1.38;0.63;;;19.30;99.90;;;;;;5107637;28;20499;-84
2023/07/15 04:31:58;;;;;;;2.20;0.70;;;19.30;99.90;;;;;;5109028;28;20044;-83
2023/07/15 04:34:23;;;;;;;2.15;0.50;;;19.30;99.90;;;;;;5092945;28;20063;-82
2023/07/15 04:36:49;;;;;;;0.88;0.60;;;19.30;99.90;;;;;;5093157;28;20051;-83
2023/07/15 04:39:15;;;;;;;1.23;0.80;;;19.30;99.90;;;;;;5105437;28;20050;-83
2023/07/15 04:41:41;;;;;;;1.58;0.73;;;19.40;99.90;;;;;;5113660;28;20118;-82
2023/07/15 04:44:06;;;;;;;2.83;0.75;;;19.40;99.90;;;;;;5077791;28;20044;-83
2023/07/15 04:46:32;;;;;;;1.10;0.70;;;19.50;99.90;;;;;;5093310;28;20051;-82
2023/07/15 04:48:58;;;;;;;2.85;0.90;;;19.50;99.90;;;;;;5075075;28;20044;-82
2023/07/15 04:51:24;;;;;;;2.03;0.80;;;19.60;99.90;;;;;;5075216;28;20416;-84
2023/07/15 04:53:49;;;;;;;3.20;1.00;;;19.70;99.90;;;;;;5073792;28;20123;-83
2023/07/15 04:56:15;;;;;;;2.20;1.00;;;19.80;99.90;;;;;;5113373;28;20399;-83
2023/07/15 04:58:41;;;;;;;3.15;0.80;;;19.90;99.90;;;;;;5095211;28;20044;-82
2023/07/15 05:01:07;;;;;;;2.03;0.80;;;20.00;99.90;;;;;;5094914;28;20043;-83
2023/07/15 05:03:33;;;;;;;1.20;0.70;;;20.10;99.90;;;;;;5111042;28;20040;-82
2023/07/15 05:05:59;;;;;;;1.88;0.90;;;20.10;99.90;;;;;;5113061;28;20091;-85
2023/07/15 05:08:25;;;;;;;1.92;0.88;;;20.30;99.90;;;;;;5113416;28;20122;-84
2023/07/15 05:10:51;;;;;;;1.70;1.00;;;20.40;99.90;;;;;;5113053;28;20503;-84
2023/07/15 05:13:17;;;;;;;2.28;0.95;;;20.50;99.90;;;;;;5095042;28;20067;-82
2023/07/15 05:15:43;;;;;;;1.80;0.90;;;20.50;99.90;;;;;;5111074;28;20122;-83
2023/07/15 05:18:09;;;;;;;2.05;0.85;;;20.60;99.90;;;;;;5112473;28;20035;-83
2023/07/15 05:20:37;;;;;;;1.17;0.70;;;20.60;99.90;;;;;;5094588;28;20043;-84
2023/07/15 05:23:03;;;;;;;3.13;0.80;;;20.60;99.90;;;;;;5113107;28;20040;-83
2023/07/15 05:25:30;;;;;;;1.65;0.80;;;20.60;99.90;;;;;;5110881;28;20337;-83
2023/07/15 05:27:56;;;;;;;2.42;1.15;;;20.60;99.90;;;;;;5093941;28;20140;-84
2023/07/15 05:30:22;;;;;;;1.85;0.80;;;20.60;99.90;;;;;;5113247;28;20040;-82
2023/07/15 05:32:48;;;;;;;2.70;0.88;;;20.70;99.90;;;;;;5092293;28;20043;-84
2023/07/15 05:35:14;;;;;;;2.60;0.90;;;20.70;99.90;;;;;;5093980;28;20051;-83
2023/07/15 05:37:40;;;;;;;1.30;0.75;;;20.70;99.90;;;;;;5094270;28;20497;-85
2023/07/15 05:40:09;;;;;;;1.02;0.60;;;20.80;99.90;;;;;;5103824;28;20040;-83
2023/07/15 05:42:45;;;;;;;1.55;0.77;;;20.90;99.90;;;;;;5094751;28;20055;-82
2023/07/15 05:45:12;;;;;;;0.75;0.50;;;21.00;99.90;;;;;;5087004;28;20083;-82
2023/07/15 05:47:40;;;;;;;1.33;0.52;;;21.10;99.90;;;;;;5092467;28;20044;-84
2023/07/15 05:50:08;;;;;;;1.67;0.57;;;21.20;99.90;;;;;;5084175;28;20044;-84
2023/07/15 05:52:34;;;;;;;2.20;0.85;;;21.30;99.90;;;;;;5094770;28;20493;-82
2023/07/15 05:55:00;;;;;;;1.13;0.73;;;21.30;99.90;;;;;;5112602;28;20048;-82
2023/07/15 05:57:26;;;;;;;3.58;0.73;;;21.40;99.90;;;;;;5097065;28;20040;-82
2023/07/15 05:59:52;;;;;;;1.48;0.63;;;21.50;99.90;;;;;;5096699;28;20101;-82
2023/07/15 06:02:18;;;;;;;1.85;0.70;;;21.60;99.90;;;;;;5096363;28;20088;-82
2023/07/15 06:04:44;;;;;;;1.25;0.60;;;21.70;99.90;;;;;;5112549;28;20035;-82
2023/07/15 06:07:09;;;;;;;2.40;0.77;;;21.80;99.90;;;;;;5112764;28;20503;-82
2023/07/15 06:09:35;;;;;;;1.48;0.70;;;21.90;99.90;;;;;;5115133;28;20047;-83
2023/07/15 06:12:01;;;;;;;1.90;0.80;;;22.00;99.90;;;;;;5116744;28;20032;-83
2023/07/15 06:14:27;;;;;;;3.53;0.98;;;22.10;99.90;;;;;;5098482;28;20496;-82
2023/07/15 06:16:52;;;;;;;2.60;0.82;;;22.20;99.90;;;;;;5096597;28;20479;-82
2023/07/15 06:19:18;;;;;;;3.28;0.80;;;22.30;99.90;;;;;;5114913;28;20395;-82
2023/07/15 06:21:44;;;;;;;3.35;0.90;;;22.30;99.90;;;;;;5114115;28;20384;-82
2023/07/15 06:24:09;;;;;;;1.10;0.65;;;22.40;99.90;;;;;;5114614;28;20044;-82
2023/07/15 06:26:35;;;;;;;1.92;0.82;;;22.50;99.90;;;;;;5116212;28;20093;-82
2023/07/15 06:29:01;;;;;;;4.15;0.80;;;22.60;99.90;;;;;;5113434;28;20044;-83
2023/07/15 06:31:27;;;;;;;1.25;0.68;;;22.60;99.90;;;;;;5116257;28;20051;-82
2023/07/15 06:33:53;;;;;;;2.47;0.80;;;22.70;99.90;;;;;;5116024;28;20047;-82
2023/07/15 06:36:19;;;;;;;4.43;0.95;;;22.90;99.90;;;;;;5114893;28;20108;-82
2023/07/15 06:38:45;;;;;;;1.77;0.60;;;22.80;99.90;;;;;;5106216;28;20074;-82
2023/07/15 06:41:11;;;;;;;1.13;0.70;;;22.80;99.90;;;;;;5097347;28;20075;-83
2023/07/15 06:43:37;;;;;;;1.52;0.70;;;22.80;99.90;;;;;;5115973;28;20050;-84
2023/07/15 06:46:02;;;;;;;1.45;0.70;;;22.80;99.90;;;;;;5115260;28;20369;-83
2023/07/15 06:48:28;;;;;;;1.65;0.70;;;22.80;99.90;;;;;;5114456;28;20047;-83
2023/07/15 06:50:54;;;;;;;1.63;0.80;;;22.80;99.90;;;;;;5095264;28;20063;-86
2023/07/15 06:53:22;;;;;;;2.85;0.80;;;23.00;99.90;;;;;;5093385;28;20547;-89
2023/07/15 06:55:49;;;;;;;1.73;0.80;;;23.10;99.90;;;;;;5074400;28;20047;-85
2023/07/15 06:58:15;;;;;;;1.52;0.50;;;23.20;99.90;;;;;;5097669;28;20053;-86
2023/07/15 07:00:45;;;;;;;1.10;0.70;;;23.30;99.90;;;;;;5113277;28;20123;-89
2023/07/15 07:03:23;;;;;;;3.30;0.80;;;23.40;99.90;;;;;;5086589;28;20102;-90
2023/07/15 07:09:46;;;;;;;2.25;0.88;;;23.60;99.90;;;;;;5115836;28;20419;-88
2023/07/15 07:12:13;;;;;;;1.33;0.70;;;23.60;99.90;;;;;;5097229;28;20516;-89
2023/07/15 07:14:44;;;;;;;2.40;0.90;;;23.60;99.90;;;;;;5072970;28;20048;-88
2023/07/15 07:17:10;;;;;;;2.13;0.90;;;23.60;99.90;;;;;;5082529;28;20043;-88
2023/07/15 07:19:36;;;;;;;1.85;0.80;;;23.80;99.90;;;;;;5091362;28;20163;-89
2023/07/15 07:22:07;;;;;;;1.23;0.65;;;23.80;99.90;;;;;;5086175;28;20040;-89
2023/07/15 07:24:38;;;;;;;4.57;0.93;;;23.80;99.90;;;;;;5094777;28;20044;-88
2023/07/15 07:27:07;;;;;;;2.88;0.75;;;24.00;99.90;;;;;;5103410;28;20104;-90
2023/07/15 07:29:34;;;;;;;1.40;0.63;;;24.00;99.90;;;;;;5077109;28;20103;-88
2023/07/15 07:31:59;;;;;;;2.08;0.70;;;24.10;99.90;;;;;;5086469;28;20050;-86
2023/07/15 07:34:25;;;;;;;1.90;0.82;;;24.10;99.90;;;;;;5094729;28;20052;-88
2023/07/15 07:37:04;;;;;;;2.20;0.70;;;24.30;99.90;;;;;;5076621;28;20048;-90
2023/07/15 07:39:29;;;;;;;4.63;0.70;;;24.40;99.90;;;;;;5077314;28;20063;-88
2023/07/15 07:41:55;;;;;;;1.80;0.68;;;24.50;99.90;;;;;;5080409;28;20032;-87
2023/07/15 07:44:25;;;;;;;3.65;1.05;;;24.60;99.90;;;;;;5092530;28;20503;-87
2023/07/15 07:46:53;;;;;;;1.88;0.60;;;24.70;99.90;;;;;;5097269;28;20032;-87
2023/07/15 07:49:19;;;;;;;2.30;0.70;;;24.70;99.90;;;;;;5082322;28;20036;-85
2023/07/15 07:51:45;;;;;;;1.35;0.70;;;24.70;99.90;;;;;;5113258;28;20501;-87
2023/07/15 07:54:10;;;;;;;0.75;0.50;;;24.90;99.90;;;;;;5114551;28;20054;-86
2023/07/15 07:56:37;;;;;;;1.48;0.57;;;25.10;99.90;;;;;;5114725;28;20055;-87
2023/07/15 07:59:05;;;;;;;3.50;0.60;;;25.20;99.90;;;;;;5112726;28;20106;-87
2023/07/15 08:01:34;;;;;;;2.25;0.77;;;25.30;99.90;;;;;;5079048;28;20048;-86
2023/07/15 08:04:00;;;;;;;0.65;0.47;;;25.20;99.90;;;;;;5088134;28;20385;-85
2023/07/15 08:06:26;;;;;;;2.70;0.60;;;25.20;99.90;;;;;;5112424;28;20093;-84
2023/07/15 08:08:53;;;;;;;1.00;0.52;;;25.30;99.90;;;;;;5114453;28;20480;-84
2023/07/15 08:11:19;;;;;;;2.15;0.70;;;25.50;99.90;;;;;;5093012;28;20036;-86
2023/07/15 08:13:44;;;;;;;0.95;0.60;;;25.50;99.90;;;;;;5077672;28;20055;-84
2023/07/15 08:16:33;;;;;;;2.30;0.75;;;25.70;99.90;;;;;;5095977;28;20047;-83
2023/07/15 08:18:59;;;;;;;2.25;0.80;;;25.80;99.90;;;;;;5113180;28;20035;-83
2023/07/15 08:21:27;;;;;;;1.30;0.70;;;26.00;99.90;;;;;;5111880;28;20437;-83
2023/07/15 08:23:53;;;;;;;2.53;0.90;;;26.00;99.90;;;;;;5096056;28;20055;-83
2023/07/15 08:26:20;;;;;;;1.58;0.52;;;25.90;99.90;;;;;;5095265;28;20548;-84
2023/07/15 08:28:46;;;;;;;0.68;0.50;;;25.90;99.90;;;;;;5094965;28;20101;-84
2023/07/15 08:31:11;;;;;;;1.40;0.60;;;25.90;99.90;;;;;;5095520;28;20073;-85
2023/07/15 08:33:37;;;;;;;1.65;0.57;;;26.00;99.90;;;;;;5113019;28;20047;-83
2023/07/15 08:36:03;;;;;;;0.75;0.45;;;26.10;99.90;;;;;;5097043;28;20121;-83
2023/07/15 08:38:30;;;;;;;1.17;0.50;;;26.10;99.90;;;;;;5093333;28;20135;-82
2023/07/15 08:41:00;;;;;;;2.03;0.55;;;26.20;99.90;;;;;;5093010;28;20043;-82
2023/07/15 08:43:28;;;;;;;1.30;0.43;;;26.30;99.90;;;;;;5049524;28;20044;-82
2023/07/15 08:45:58;;;;;;;0.90;0.50;;;26.20;99.90;;;;;;5091220;28;20080;-82
2023/07/15 08:48:24;;;;;;;2.20;0.52;;;26.20;99.90;;;;;;5072991;28;20040;-84
2023/07/15 08:50:53;;;;;;;1.40;0.60;;;26.00;99.90;;;;;;5058357;28;20059;-88
2023/07/15 08:53:29;;;;;;;1.13;0.40;;;26.00;99.90;;;;;;5066012;28;20443;-86
2023/07/15 08:55:59;;;;;;;2.05;0.40;;;25.70;99.90;;;;;;5057929;28;20040;-90
2023/07/15 08:58:47;;;;;;;0.77;0.40;;;25.60;99.90;;;;;;5056240;28;20127;-87
2023/07/15 09:01:16;;;;;;;2.88;0.55;;;25.40;99.90;;;;;;5056509;28;20048;-89
2023/07/15 09:11:11;;;;;;;3.28;0.40;;;25.60;99.90;;;;;;5073760;28;20047;-92
2023/07/15 09:13:57;;;;;;;2.25;0.63;;;26.00;99.90;;;;;;5038365;28;20044;-91
2023/07/15 09:16:24;;;;;;;0.60;0.40;;;26.00;99.90;;;;;;5054205;28;20049;-89
2023/07/15 09:18:57;;;;;;;0.50;0.30;;;26.10;99.90;;;;;;5074281;28;20032;-93
2023/07/15 09:21:29;;;;;;;0.43;0.30;;;26.30;99.90;;;;;;5088249;22;20068;-92
2023/07/15 09:46:05;;;;;;;1.77;0.50;;;26.90;99.90;;;;;;5403048;22;20507;-92
2023/07/15 09:48:31;;;;;;;0.70;0.40;;;26.80;99.90;;;;;;5020080;28;20045;-86
2023/07/15 09:50:59;;;;;;;0.90;0.40;;;26.90;99.90;;;;;;5053632;28;20056;-89
2023/07/15 09:53:37;;;;;;;0.93;0.52;;;26.60;99.90;;;;;;5054218;28;20140;-90
2023/07/15 09:56:05;;;;;;;1.25;0.40;;;26.80;99.90;;;;;;5037561;28;20045;-86
2023/07/15 09:58:48;;;;;;;0.47;0.38;;;26.80;99.90;;;;;;5021489;28;20098;-89
2023/07/15 10:01:40;;;;;;;1.23;0.50;;;26.90;99.90;;;;;;5037664;28;20524;-91
2023/07/15 10:04:22;;;;;;;1.55;0.45;;;26.90;99.90;;;;;;5037492;28;20060;-91
2023/07/15 10:07:05;;;;;;;1.05;0.50;;;27.00;99.90;;;;;;5056218;28;20597;-93
2023/07/15 10:09:39;;;;;;;1.58;0.52;;;26.80;99.90;;;;;;5057012;28;20086;-92
2023/07/15 10:12:06;;;;;;;1.45;0.40;;;26.90;99.90;;;;;;5054458;28;20064;-90
2023/07/15 10:14:33;;;;;;;3.50;0.68;;;26.70;99.90;;;;;;5037397;28;20049;-89
2023/07/15 10:17:18;;;;;;;2.00;0.45;;;26.70;99.90;;;;;;5036862;28;20096;-88
2023/07/15 10:19:50;;;;;;;1.63;0.50;;;26.50;99.90;;;;;;5053530;28;20052;-85
2023/07/15 10:22:21;;;;;;;2.10;0.60;;;26.50;99.90;;;;;;5078984;28;20568;-86
2023/07/15 10:25:01;;;;;;;1.40;0.40;;;26.50;99.90;;;;;;5098105;28;20051;-87
2023/07/15 10:27:30;;;;;;;1.75;0.50;;;26.40;99.90;;;;;;5098304;28;20054;-88
2023/07/15 10:30:18;;;;;;;0.80;0.40;;;26.40;99.90;;;;;;5098251;28;20040;-86
2023/07/15 10:33:07;;;;;;;1.58;0.50;;;26.40;99.90;;;;;;5116272;28;20044;-88
2023/07/15 10:35:42;;;;;;;0.50;0.30;;;26.50;99.90;;;;;;5097407;28;20047;-86
2023/07/15 10:38:24;;;;;;;0.93;0.35;;;26.50;99.90;;;;;;5116043;28;20198;-86
2023/07/15 10:41:01;;;;;;;1.20;0.50;;;26.40;99.90;;;;;;5091732;28;20048;-84
2023/07/15 10:43:33;;;;;;;1.13;0.63;;;26.60;99.90;;;;;;5098195;28;20043;-88
2023/07/15 10:46:04;;;;;;;0.80;0.50;;;26.90;99.90;;;;;;5096988;28;20051;-86
2023/07/15 10:48:30;;;;;;;0.95;0.40;;;27.30;99.90;;;;;;5097433;28;20122;-84
2023/07/15 10:50:58;;;;;;;0.90;0.40;;;27.60;99.90;;;;;;5097359;28;20466;-84
2023/07/15 10:53:26;;;;;;;0.85;0.35;;;27.80;99.90;;;;;;5115665;28;20092;-84
2023/07/15 10:56:09;;;;;;;1.45;0.45;;;27.90;99.90;;;;;;5094951;28;20086;-84
2023/07/15 10:58:36;;;;;;;1.67;0.50;;;27.90;99.90;;;;;;5097199;28;20045;-84
2023/07/15 11:01:07;;;;;;;0.75;0.40;;;28.00;99.90;;;;;;5103275;28;20101;-84
2023/07/15 11:03:36;;;;;;;2.28;0.43;;;27.80;99.90;;;;;;5095278;28;20071;-84
2023/07/15 11:06:02;;;;;;;1.48;0.55;;;27.80;99.90;;;;;;5077030;28;20114;-84
2023/07/15 11:08:29;;;;;;;1.17;0.50;;;27.60;99.90;;;;;;5095137;28;20093;-84
2023/07/15 11:11:00;;;;;;;1.00;0.43;;;27.60;99.90;;;;;;5094905;28;20093;-84
2023/07/15 11:13:26;;;;;;;0.60;0.40;;;27.80;99.90;;;;;;5077011;28;20123;-84
2023/07/15 11:15:52;;;;;;;2.95;0.60;;;27.60;99.90;;;;;;5076659;28;20508;-85
2023/07/15 11:18:22;;;;;;;0.70;0.40;;;27.60;99.90;;;;;;5076860;28;20484;-85
2023/07/15 11:20:51;;;;;;;1.63;0.50;;;27.50;99.90;;;;;;5076997;28;20036;-84
2023/07/15 11:23:17;;;;;;;1.45;0.60;;;27.70;99.90;;;;;;5095026;28;20040;-84
2023/07/15 11:25:43;;;;;;;0.77;0.40;;;27.80;99.90;;;;;;5076512;28;20047;-84
2023/07/15 11:28:10;;;;;;;1.77;0.50;;;27.80;99.90;;;;;;5094898;28;20048;-84
2023/07/15 11:30:42;;;;;;;0.57;0.50;;;27.60;99.90;;;;;;5094601;28;20042;-85
2023/07/15 11:33:08;;;;;;;0.77;0.50;;;27.70;99.90;;;;;;5112972;28;20150;-84
2023/07/15 11:35:37;;;;;;;1.00;0.52;;;27.80;99.90;;;;;;5096487;28;20492;-83
2023/07/15 11:38:13;;;;;;;1.00;0.68;;;27.80;99.90;;;;;;5114678;28;20054;-83
2023/07/15 11:40:55;;;;;;;1.25;0.43;;;27.60;99.90;;;;;;5114713;28;20044;-84
2023/07/15 11:43:23;;;;;;;0.60;0.30;;;27.30;99.90;;;;;;5096273;28;20040;-84
2023/07/15 11:45:49;;;;;;;0.70;0.28;;;27.30;99.90;;;;;;5114764;28;20432;-84
2023/07/15 11:48:23;;;;;;;0.77;0.45;;;27.30;99.90;;;;;;5114757;28;20043;-83
2023/07/15 11:50:49;;;;;;;1.75;0.52;;;27.30;99.90;;;;;;5114536;28;20047;-84
2023/07/15 11:53:31;;;;;;;1.42;0.47;;;27.30;99.90;;;;;;5113132;28;20046;-84
2023/07/15 11:55:58;;;;;;;0.50;0.38;;;27.40;99.90;;;;;;5093883;28;20040;-84
2023/07/15 11:58:42;;;;;;;0.57;0.35;;;27.50;99.90;;;;;;5094052;28;20047;-84
2023/07/15 12:01:13;;;;;;;0.80;0.30;;;27.40;99.90;;;;;;5093945;28;20077;-83
2023/07/15 12:03:40;;;;;;;1.05;0.45;;;27.40;99.90;;;;;;5063612;28;20039;-84
2023/07/15 12:06:16;;;;;;;1.75;0.50;;;27.40;99.90;;;;;;5095114;28;20503;-84
2023/07/15 12:08:43;;;;;;;0.80;0.45;;;27.50;99.90;;;;;;5095974;28;20035;-84
2023/07/15 12:11:17;;;;;;;1.00;0.43;;;27.50;99.90;;;;;;5114236;28;20048;-84
2023/07/15 12:13:43;;;;;;;2.00;0.38;;;27.60;99.90;;;;;;5095554;28;20108;-84
2023/07/15 12:16:09;;;;;;;0.65;0.30;;;27.80;99.90;;;;;;5095923;28;20035;-84
2023/07/15 12:18:34;;;;;;;1.17;0.40;;;28.00;99.90;;;;;;5079114;28;20412;-83
2023/07/15 12:21:00;;;;;;;1.73;0.32;;;28.20;99.90;;;;;;5113753;28;20488;-84
2023/07/15 12:23:26;;;;;;;1.75;0.35;;;28.40;99.90;;;;;;5095862;28;20043;-83
2023/07/15 12:25:51;;;;;;;1.00;0.40;;;28.40;99.90;;;;;;5113606;28;20126;-83
2023/07/15 12:28:17;;;;;;;1.80;0.30;;;28.80;99.90;;;;;;5096112;28;20147;-84
2023/07/15 12:30:43;;;;;;;0.73;0.35;;;29.20;99.30;;;;;;5071150;28;20480;-83
2023/07/15 12:33:08;;;;;;;0.52;0.30;;;29.50;98.60;;;;;;5094090;28;20469;-83
2023/07/15 12:35:34;;;;;;;4.40;0.50;;;29.50;98.10;;;;;;5092941;28;20032;-83
2023/07/15 12:38:00;;;;;;;1.65;0.40;;;29.40;98.40;;;;;;5076306;28;20047;-82
2023/07/15 12:40:25;;;;;;;1.20;0.50;;;29.40;98.60;;;;;;5113837;28;20063;-82
2023/07/15 12:42:51;;;;;;;1.35;0.43;;;29.50;99.10;;;;;;5113685;28;20039;-83
2023/07/15 12:45:17;;;;;;;1.42;0.40;;;29.40;98.80;;;;;;5113695;28;20055;-84
2023/07/15 12:47:43;;;;;;;2.35;0.32;;;29.30;98.60;;;;;;5113844;28;20480;-83
2023/07/15 12:50:09;;;;;;;2.28;0.50;;;29.20;98.80;;;;;;5113189;28;20082;-82
2023/07/15 12:52:35;;;;;;;1.25;0.32;;;29.20;99.20;;;;;;5095154;28;20117;-83
2023/07/15 12:55:02;;;;;;;0.82;0.40;;;29.10;99.60;;;;;;5094930;28;20539;-82
2023/07/15 12:57:28;;;;;;;1.05;0.30;;;29.10;98.40;;;;;;5095307;28;20082;-82
2023/07/15 12:59:54;;;;;;;1.70;0.50;;;29.00;98.70;;;;;;5095271;28;20101;-83
2023/07/15 13:02:19;;;;;;;3.45;0.38;;;29.20;99.00;;;;;;5094896;28;20058;-82
2023/07/15 13:04:45;;;;;;;1.65;0.30;;;29.20;98.70;;;;;;5112937;28;20081;-83
2023/07/15 13:07:11;;;;;;;0.73;0.30;;;29.10;98.70;;;;;;5113166;28;20130;-83
2023/07/15 13:09:36;;;;;;;2.15;0.30;;;28.90;98.90;;;;;;5094887;28;20092;-83
2023/07/15 13:12:02;;;;;;;1.98;0.38;;;28.70;98.60;;;;;;5091442;28;20043;-83
2023/07/15 13:14:29;;;;;;;1.10;0.40;;;28.70;98.60;;;;;;5107109;28;20059;-83
2023/07/15 13:16:55;;;;;;;1.35;0.50;;;28.70;98.10;;;;;;5112901;28;20511;-83
2023/07/15 13:19:20;;;;;;;1.33;0.30;;;28.40;98.70;;;;;;5113169;28;20376;-83
2023/07/15 13:21:46;;;;;;;1.95;0.40;;;28.20;98.70;;;;;;5113114;28;20120;-83
2023/07/15 13:24:12;;;;;;;0.80;0.40;;;28.00;98.80;;;;;;5112959;28;20122;-83
2023/07/15 13:26:37;;;;;;;3.35;0.40;;;27.90;98.40;;;;;;5112853;28;20031;-83
2023/07/15 13:29:04;;;;;;;1.35;0.40;;;27.70;98.80;;;;;;5094990;28;20100;-84